Accueil
METAR-TAF:

METAR-TAF

Aéroports :

Aéroport international d'Incheon

Séoul-Incheon, Corée du Sud

latitude: 37-28N, longitude: 126-27E, altitude: 7 m

Observation

Le bulletin a été fait il y a 23 minutes, à 22:00 UTC
Vent 3 kt de sud-est, variant entre nord et sud/sud-est
Température 9°C
Humidité 76%
Pression 1020 hPa
Visibilité 10 km ou plus
Quelques nuages à une hauteur de 3000 ft

METAR: RKSI 232200Z 13003KT 010V150 9999 FEW030 09/05 Q1020 NOSIG

Heure: 07:23 (22:23 UTC)

Prévision

Le bulletin a été fait il y a 5 heures et 23 minutes, à 17:00 UTC
Prévision valable du 23 à 18 UTC au 24 à 24 UTC
Vent 6 kt de nord-ouest
Visibilité 10 km ou plus
Nuages épars à une hauteur de 3000 ft
Evoluant progressivement
du 24 à 15 UTC au 24 à 16 UTC
Vent 6 kt de est/nord-est

TAF: RKSI 231700Z 2318/2424 32006KT 9999 SCT030 TN10/2321Z TX18/2406Z TN09/2421Z BECMG 2415/2416 07006KT

Observations et prévisions météorologiques de plus de 4000 aéroports (messages METAR et TAF).

Les stations disponibles sont représentées par des disques jaunes et rouges sur la carte.

Passer la souris dessus pour voir le nom de la station.

Cliquer dessus pour voir les observations et prévisions météorologiques.

Pour changer de carte: cliquez sur les boutons verts avec une croix noire pour zoomer, sur le bouton vert avec un tiret pour effectuer un zoom arrière, ou sur les flèches vertes pour les cartes adjacentes.


METAR-TAF: